createdAt,value
2022-08-05T00:00:17.321Z,24.47
2022-08-05T00:02:51.724Z,24.46
2022-08-05T00:06:02.817Z,24.50
2022-08-05T00:08:32.922Z,24.46
2022-08-05T00:11:00.983Z,24.57
2022-08-05T00:13:39.445Z,24.53
2022-08-05T00:16:12.186Z,24.47
2022-08-05T00:18:40.886Z,24.28
2022-08-05T00:21:10.149Z,24.28
2022-08-05T00:23:46.165Z,24.18
2022-08-05T00:26:20.878Z,24.16
2022-08-05T00:28:49.577Z,24.10
2022-08-05T00:31:53.827Z,24.16
2022-08-05T00:34:54.890Z,23.98
2022-08-05T00:37:11.208Z,23.97
2022-08-05T00:39:57.293Z,24.06
2022-08-05T00:42:32.091Z,23.94
2022-08-05T00:45:00.351Z,23.75
2022-08-05T00:47:31.642Z,23.70
2022-08-05T00:50:15.378Z,23.71
2022-08-05T00:52:45.535Z,23.64
2022-08-05T00:55:14.959Z,23.58
2022-08-05T00:57:57.980Z,23.54
2022-08-05T01:00:28.173Z,23.60
2022-08-05T01:02:56.508Z,23.44
2022-08-05T01:05:24.801Z,23.37
2022-08-05T01:08:39.950Z,23.43
2022-08-05T01:10:53.295Z,23.62
2022-08-05T01:13:57.465Z,23.61
2022-08-05T01:16:33.123Z,23.72
2022-08-05T01:19:06.620Z,23.58
2022-08-05T01:21:50.613Z,23.60
2022-08-05T01:24:39.357Z,23.54
2022-08-05T01:27:25.549Z,23.41
2022-08-05T01:29:54.833Z,23.47
2022-08-05T01:32:23.805Z,23.28
2022-08-05T01:34:57.571Z,23.21
2022-08-05T01:37:48.399Z,23.09
2022-08-05T01:40:18.035Z,22.99
2022-08-05T01:42:46.295Z,23.00
2022-08-05T01:45:14.401Z,23.02
2022-08-05T01:47:44.495Z,23.09
2022-08-05T01:50:28.581Z,23.14
2022-08-05T01:53:00.679Z,23.21
2022-08-05T01:55:29.223Z,23.19
2022-08-05T01:58:12.657Z,23.16
2022-08-05T02:00:45.750Z,23.24
2022-08-05T02:03:44.075Z,23.34
2022-08-05T02:06:23.918Z,23.39
2022-08-05T02:08:59.344Z,23.27
2022-08-05T02:11:33.359Z,23.00
2022-08-05T02:14:04.949Z,22.76
2022-08-05T02:16:42.015Z,22.71
2022-08-05T02:19:28.202Z,22.58
2022-08-05T02:22:08.630Z,22.55
2022-08-05T02:24:38.238Z,22.48
2022-08-05T02:27:10.158Z,22.56
2022-08-05T02:29:59.798Z,22.62
2022-08-05T02:32:29.250Z,22.54
2022-08-05T02:34:59.912Z,22.56
2022-08-05T02:37:37.013Z,22.55
2022-08-05T02:40:04.638Z,22.52
2022-08-05T02:42:37.144Z,22.52
2022-08-05T02:45:04.808Z,22.37
2022-08-05T02:48:06.769Z,22.27
2022-08-05T02:50:19.862Z,22.21
2022-08-05T02:52:47.184Z,22.41
2022-08-05T02:55:14.860Z,22.41
2022-08-05T02:58:11.235Z,22.54
2022-08-05T03:00:32.946Z,22.62
2022-08-05T03:03:01.677Z,22.66
2022-08-05T03:06:56.886Z,22.65
2022-08-05T03:08:16.675Z,22.63
2022-08-05T03:11:47.620Z,22.62
2022-08-05T03:13:51.605Z,22.35
2022-08-05T03:16:29.343Z,22.33
2022-08-05T03:19:12.588Z,22.28
2022-08-05T03:21:48.771Z,22.34
2022-08-05T03:24:29.404Z,22.35
2022-08-05T03:26:59.469Z,22.37
2022-08-05T03:29:45.939Z,22.14
2022-08-05T03:32:15.538Z,22.07
2022-08-05T03:34:47.238Z,21.93
2022-08-05T03:37:19.894Z,21.83
2022-08-05T03:40:01.820Z,21.87
2022-08-05T03:42:32.086Z,21.87
2022-08-05T03:45:01.877Z,21.53
2022-08-05T03:47:47.892Z,21.39
2022-08-05T03:50:17.072Z,21.34
2022-08-05T03:55:00.221Z,21.28
2022-08-05T03:56:27.883Z,21.07
2022-08-05T03:59:01.319Z,21.04
2022-08-05T04:01:32.236Z,21.02
2022-08-05T04:04:09.211Z,21.07
2022-08-05T04:06:37.988Z,21.21
2022-08-05T04:09:06.416Z,21.50
2022-08-05T04:11:50.491Z,21.56
2022-08-05T04:14:29.878Z,21.55
2022-08-05T04:17:00.104Z,21.60
2022-08-05T04:19:30.634Z,21.65
2022-08-05T04:22:08.529Z,21.67
2022-08-05T04:24:44.479Z,21.77
2022-08-05T04:27:13.471Z,21.69
2022-08-05T04:29:41.523Z,21.60
2022-08-05T04:32:09.893Z,21.57
2022-08-05T04:34:40.913Z,21.75
2022-08-05T04:37:10.476Z,21.75
2022-08-05T04:39:39.141Z,21.75
2022-08-05T04:42:07.954Z,21.93
2022-08-05T04:44:36.692Z,22.11
2022-08-05T04:47:09.943Z,22.30
2022-08-05T04:50:01.678Z,22.30
2022-08-05T04:52:27.672Z,22.25
2022-08-05T04:54:57.159Z,22.33
2022-08-05T04:57:28.543Z,22.33
2022-08-05T04:59:58.572Z,22.37
2022-08-05T05:02:37.433Z,22.40
2022-08-05T05:05:26.375Z,22.49
2022-08-05T05:08:14.140Z,22.71
2022-08-05T05:10:55.771Z,22.76
2022-08-05T05:13:23.398Z,22.75
2022-08-05T05:15:59.474Z,22.82
2022-08-05T05:18:34.237Z,22.81
2022-08-05T05:21:03.157Z,22.96
2022-08-05T05:24:02.310Z,23.14
2022-08-05T05:26:18.306Z,23.34
2022-08-05T05:28:45.691Z,23.47
2022-08-05T05:31:13.197Z,23.57
2022-08-05T05:33:59.783Z,23.67
2022-08-05T05:36:28.733Z,23.79
2022-08-05T05:38:58.014Z,23.85
2022-08-05T05:41:26.340Z,23.85
2022-08-05T05:44:35.608Z,24.04
2022-08-05T05:46:56.369Z,24.19
2022-08-05T05:49:25.570Z,24.23
2022-08-05T05:51:53.759Z,24.29
2022-08-05T05:54:22.201Z,24.41
2022-08-05T05:57:13.621Z,24.49
2022-08-05T05:59:47.159Z,24.74
2022-08-05T06:02:16.215Z,24.78
2022-08-05T06:04:44.649Z,24.97
2022-08-05T06:07:16.677Z,25.15
2022-08-05T06:10:03.434Z,25.28
2022-08-05T06:12:35.297Z,25.34
2022-08-05T06:15:13.535Z,25.35
2022-08-05T06:17:53.075Z,25.32
2022-08-05T06:20:21.924Z,25.25
2022-08-05T06:22:49.347Z,25.22
2022-08-05T06:25:59.028Z,25.14
2022-08-05T06:28:10.685Z,25.25
2022-08-05T06:30:40.611Z,25.53
2022-08-05T06:33:10.076Z,25.67
2022-08-05T06:36:07.749Z,25.79
2022-08-05T06:38:35.682Z,25.89
2022-08-05T06:41:05.292Z,26.06
2022-08-05T06:43:57.507Z,26.27
2022-08-05T06:46:29.678Z,28.67
2022-08-05T06:48:59.751Z,30.35
2022-08-05T06:51:30.790Z,32.11
2022-08-05T06:53:59.535Z,32.36
2022-08-05T06:56:28.399Z,32.82
2022-08-05T06:58:55.775Z,33.55
2022-08-05T07:01:23.603Z,33.69
2022-08-05T07:03:55.310Z,34.15
2022-08-05T07:06:23.716Z,34.26
2022-08-05T07:08:52.059Z,33.99
2022-08-05T07:11:25.520Z,34.01
2022-08-05T07:14:20.143Z,33.93
2022-08-05T07:18:08.130Z,35.11
2022-08-05T07:22:28.116Z,35.38
2022-08-05T07:25:21.935Z,36.07
2022-08-05T07:27:57.771Z,35.94
2022-08-05T07:30:38.995Z,35.22
2022-08-05T07:33:09.486Z,35.85
2022-08-05T07:36:04.849Z,35.43
2022-08-05T07:38:34.149Z,35.32
2022-08-05T07:42:07.128Z,35.18
2022-08-05T07:44:00.293Z,35.28
2022-08-05T07:46:29.308Z,35.87
2022-08-05T07:49:02.777Z,35.21
2022-08-05T07:51:37.359Z,34.80
2022-08-05T07:54:08.397Z,34.92
2022-08-05T07:57:00.793Z,35.09
2022-08-05T07:59:39.047Z,35.07
2022-08-05T08:02:15.750Z,35.93
2022-08-05T08:04:48.573Z,35.92
2022-08-05T08:07:18.097Z,35.83
2022-08-05T08:09:46.313Z,35.48
2022-08-05T08:12:30.587Z,36.23
2022-08-05T08:15:03.697Z,36.65
2022-08-05T08:17:32.801Z,36.06
2022-08-05T08:20:21.546Z,35.94
2022-08-05T08:22:54.286Z,35.82
2022-08-05T08:25:27.205Z,35.98
2022-08-05T08:28:18.758Z,35.62
2022-08-05T08:30:58.861Z,34.70
2022-08-05T08:33:27.292Z,35.17
2022-08-05T08:36:18.416Z,35.12
2022-08-05T08:38:43.675Z,35.80
2022-08-05T08:41:20.652Z,34.77
2022-08-05T08:45:20.398Z,35.80
2022-08-05T08:46:41.352Z,35.55
2022-08-05T08:50:07.631Z,34.63
2022-08-05T08:52:03.359Z,35.42
2022-08-05T08:54:36.568Z,36.25
2022-08-05T08:57:06.177Z,36.47
2022-08-05T08:59:39.070Z,36.62
2022-08-05T09:02:09.896Z,34.76
2022-08-05T09:04:58.154Z,33.07
2022-08-05T09:07:29.068Z,32.33
2022-08-05T09:09:57.052Z,32.45
2022-08-05T09:12:27.413Z,32.49
2022-08-05T09:14:59.420Z,32.90
2022-08-05T09:17:40.516Z,32.56
2022-08-05T09:20:09.880Z,32.87
2022-08-05T09:23:07.899Z,32.70
2022-08-05T09:26:01.958Z,32.46
2022-08-05T09:28:32.205Z,32.72
2022-08-05T09:31:43.396Z,32.96
2022-08-05T09:34:01.653Z,32.86
2022-08-05T09:36:54.323Z,33.04
2022-08-05T09:39:41.426Z,33.04
2022-08-05T09:42:17.510Z,33.17
2022-08-05T09:44:52.361Z,33.11
2022-08-05T09:47:48.490Z,33.03
2022-08-05T09:50:18.132Z,33.23
2022-08-05T09:53:02.424Z,33.24
2022-08-05T09:55:59.117Z,33.33
2022-08-05T09:58:23.326Z,33.17
2022-08-05T10:01:01.039Z,33.13
2022-08-05T10:03:56.475Z,33.13
2022-08-05T10:06:16.128Z,33.43
2022-08-05T10:08:43.488Z,33.71
2022-08-05T10:11:21.933Z,33.82
2022-08-05T10:13:54.676Z,34.01
2022-08-05T10:16:52.366Z,34.06
2022-08-05T10:19:23.693Z,34.02
2022-08-05T10:21:59.558Z,34.09
2022-08-05T10:24:27.373Z,34.17
2022-08-05T10:27:00.472Z,33.95
2022-08-05T10:30:07.143Z,34.15
2022-08-05T10:33:01.444Z,34.36
2022-08-05T10:35:07.432Z,34.54
2022-08-05T10:37:41.313Z,34.77
2022-08-05T10:40:39.153Z,34.81
2022-08-05T10:43:13.949Z,34.63
2022-08-05T10:45:42.062Z,34.50
2022-08-05T10:48:35.095Z,34.39
2022-08-05T10:51:22.101Z,34.59
2022-08-05T10:53:58.355Z,35.02
2022-08-05T10:56:30.157Z,34.90
2022-08-05T10:59:07.137Z,35.07
2022-08-05T11:01:54.947Z,35.17
2022-08-05T11:04:32.003Z,35.19
2022-08-05T11:07:06.563Z,35.41
2022-08-05T11:09:47.160Z,35.15
2022-08-05T11:12:27.150Z,34.95
2022-08-05T11:15:19.005Z,34.87
2022-08-05T11:17:59.417Z,34.86
2022-08-05T11:20:47.653Z,35.08
2022-08-05T11:24:02.847Z,35.35
2022-08-05T11:26:33.936Z,35.63
2022-08-05T11:29:12.027Z,35.79
2022-08-05T11:31:56.648Z,35.80
2022-08-05T11:34:37.804Z,35.62
2022-08-05T11:37:06.184Z,35.67
2022-08-05T11:40:00.671Z,36.04
2022-08-05T11:42:32.542Z,35.76
2022-08-05T11:45:06.164Z,35.87
2022-08-05T11:47:54.597Z,36.04
2022-08-05T11:50:22.946Z,35.62
2022-08-05T11:52:53.173Z,36.00
2022-08-05T11:55:32.312Z,36.30
2022-08-05T11:58:09.968Z,36.07
2022-08-05T12:00:41.289Z,35.93
2022-08-05T12:03:29.349Z,35.19
2022-08-05T12:06:02.851Z,35.58
2022-08-05T12:08:31.732Z,35.90
2022-08-05T12:11:04.128Z,36.13
2022-08-05T12:13:49.263Z,36.35
2022-08-05T12:16:27.149Z,36.44
2022-08-05T12:18:56.211Z,36.45
2022-08-05T12:21:24.702Z,36.34
2022-08-05T12:24:05.048Z,36.40
2022-08-05T12:26:36.257Z,36.68
2022-08-05T12:29:05.530Z,36.31
2022-08-05T12:31:43.676Z,36.30
2022-08-05T12:34:38.673Z,36.17
2022-08-05T12:37:17.113Z,36.30
2022-08-05T12:39:48.502Z,36.27
2022-08-05T12:42:19.801Z,36.41
2022-08-05T12:44:47.850Z,36.08
2022-08-05T12:47:28.645Z,36.30
2022-08-05T12:50:04.339Z,36.65
2022-08-05T12:52:39.081Z,36.85
2022-08-05T12:55:26.484Z,36.56
2022-08-05T12:58:38.693Z,36.37
2022-08-05T13:02:00.762Z,36.54
2022-08-05T13:03:33.025Z,36.30
2022-08-05T13:06:01.652Z,36.44
2022-08-05T13:08:32.938Z,36.16
2022-08-05T13:11:02.312Z,36.56
2022-08-05T13:14:06.560Z,36.51
2022-08-05T13:16:17.724Z,36.60
2022-08-05T13:18:55.297Z,36.49
2022-08-05T13:21:28.411Z,36.56
2022-08-05T13:24:08.873Z,36.49
2022-08-05T13:26:36.578Z,36.72
2022-08-05T13:29:05.124Z,36.68
2022-08-05T13:32:02.850Z,36.64
2022-08-05T13:34:25.832Z,36.41
2022-08-05T13:36:54.143Z,36.35
2022-08-05T13:40:13.140Z,36.25
2022-08-05T13:42:14.680Z,36.23
2022-08-05T13:44:46.269Z,36.43
2022-08-05T13:47:34.737Z,36.48
2022-08-05T13:50:04.416Z,36.65
2022-08-05T13:52:35.518Z,36.68
2022-08-05T13:55:07.463Z,36.75
2022-08-05T13:57:50.900Z,36.70
2022-08-05T14:00:27.432Z,36.62
2022-08-05T14:02:56.966Z,36.72
2022-08-05T14:05:48.084Z,36.51
2022-08-05T14:08:20.068Z,36.65
2022-08-05T14:10:48.993Z,36.75
2022-08-05T14:13:16.444Z,36.83
2022-08-05T14:16:05.835Z,36.81
2022-08-05T14:18:31.255Z,36.86
2022-08-05T14:21:00.126Z,36.95
2022-08-05T14:23:33.660Z,36.85
2022-08-05T14:26:04.955Z,36.64
2022-08-05T14:28:33.783Z,36.67
2022-08-05T14:31:02.127Z,36.51
2022-08-05T14:33:56.747Z,36.25
2022-08-05T14:36:21.531Z,36.27
2022-08-05T14:38:50.276Z,36.27
2022-08-05T14:41:18.688Z,36.41
2022-08-05T14:44:01.473Z,36.52
2022-08-05T14:46:39.232Z,36.44
2022-08-05T14:49:10.870Z,36.25
2022-08-05T14:51:42.836Z,36.25
2022-08-05T14:54:27.746Z,36.37
2022-08-05T14:56:57.972Z,36.55
2022-08-05T14:59:29.525Z,36.38
2022-08-05T15:02:15.769Z,36.10
2022-08-05T15:04:45.004Z,35.92
2022-08-05T15:08:06.315Z,36.21
2022-08-05T15:10:03.269Z,36.16
2022-08-05T15:12:41.057Z,36.28
2022-08-05T15:15:18.269Z,36.21
2022-08-05T15:18:05.956Z,36.40
2022-08-05T15:20:33.417Z,36.41
2022-08-05T15:23:07.850Z,36.11
2022-08-05T15:25:41.077Z,35.76
2022-08-05T15:28:19.163Z,35.46
2022-08-05T15:30:53.017Z,35.41
2022-08-05T15:33:56.678Z,35.56
2022-08-05T15:36:16.643Z,35.60
2022-08-05T15:38:46.416Z,35.65
2022-08-05T15:41:21.833Z,35.55
2022-08-05T15:43:51.501Z,35.73
2022-08-05T15:46:24.370Z,35.52
2022-08-05T15:48:58.018Z,35.69
2022-08-05T15:52:13.397Z,35.70
2022-08-05T15:54:16.741Z,35.73
2022-08-05T15:56:44.103Z,35.77
2022-08-05T15:59:21.750Z,35.60
2022-08-05T16:01:52.648Z,35.48
2022-08-05T16:04:25.551Z,35.56
2022-08-05T16:06:55.563Z,35.67
2022-08-05T16:09:24.093Z,35.50
2022-08-05T16:11:53.757Z,35.49
2022-08-05T16:14:22.574Z,35.39
2022-08-05T16:16:50.092Z,35.32
2022-08-05T16:19:25.887Z,35.31
2022-08-05T16:22:05.402Z,35.24
2022-08-05T16:24:41.626Z,35.02
2022-08-05T16:27:18.941Z,34.83
2022-08-05T16:29:50.880Z,34.74
2022-08-05T16:32:28.544Z,34.77
2022-08-05T16:34:58.968Z,34.67
2022-08-05T16:38:03.360Z,34.44
2022-08-05T16:40:28.650Z,34.41
2022-08-05T16:42:57.251Z,34.37
2022-08-05T16:46:07.098Z,34.37
2022-08-05T16:48:12.144Z,34.35
2022-08-05T16:50:54.170Z,34.35
2022-08-05T16:53:32.269Z,34.20
2022-08-05T16:56:10.268Z,34.30
2022-08-05T16:58:39.441Z,34.37
2022-08-05T17:01:07.106Z,34.33
2022-08-05T17:03:38.949Z,34.23
2022-08-05T17:06:06.663Z,34.13
2022-08-05T17:08:51.747Z,34.15
2022-08-05T17:11:23.903Z,34.12
2022-08-05T17:14:05.687Z,34.02
2022-08-05T17:16:36.139Z,34.01
2022-08-05T17:19:07.437Z,33.96
2022-08-05T17:21:37.637Z,33.98
2022-08-05T17:24:18.685Z,33.99
2022-08-05T17:26:57.541Z,33.91
2022-08-05T17:29:33.973Z,33.82
2022-08-05T17:32:16.574Z,33.79
2022-08-05T17:34:47.918Z,33.72
2022-08-05T17:37:40.688Z,33.65
2022-08-05T17:40:10.729Z,33.59
2022-08-05T17:42:42.971Z,33.44
2022-08-05T17:45:22.627Z,33.10
2022-08-05T17:47:54.521Z,33.04
2022-08-05T17:50:28.638Z,33.18
2022-08-05T17:52:59.283Z,33.10
2022-08-05T17:55:38.468Z,32.90
2022-08-05T17:58:13.219Z,32.77
2022-08-05T18:00:45.315Z,32.66
2022-08-05T18:03:33.211Z,32.55
2022-08-05T18:06:11.873Z,32.49
2022-08-05T18:08:44.470Z,32.49
2022-08-05T18:11:24.440Z,32.36
2022-08-05T18:14:03.597Z,32.35
2022-08-05T18:16:32.619Z,32.08
2022-08-05T18:18:59.872Z,32.14
2022-08-05T18:21:28.175Z,32.09
2022-08-05T18:24:14.947Z,32.08
2022-08-05T18:26:43.877Z,32.02
2022-08-05T18:29:11.363Z,31.84
2022-08-05T18:31:42.954Z,31.78
2022-08-05T18:34:12.808Z,31.70
2022-08-05T18:36:43.662Z,31.56
2022-08-05T18:39:42.264Z,31.60
2022-08-05T18:42:06.336Z,31.80
2022-08-05T18:44:48.983Z,31.59
2022-08-05T18:47:22.845Z,31.53
2022-08-05T18:50:15.772Z,31.44
2022-08-05T18:52:50.830Z,31.61
2022-08-05T18:55:19.538Z,31.66
2022-08-05T18:57:52.718Z,31.29
2022-08-05T19:00:25.013Z,31.04
2022-08-05T19:02:57.451Z,31.13
2022-08-05T19:06:12.019Z,31.34
2022-08-05T19:08:13.694Z,31.20
2022-08-05T19:10:42.913Z,31.00
2022-08-05T19:13:15.602Z,30.89
2022-08-05T19:15:59.020Z,30.68
2022-08-05T19:18:29.017Z,30.52
2022-08-05T19:20:56.698Z,30.17
2022-08-05T19:24:07.615Z,30.09
2022-08-05T19:26:12.250Z,30.06
2022-08-05T19:28:43.317Z,30.16
2022-08-05T19:31:13.693Z,30.20
2022-08-05T19:33:55.733Z,30.23
2022-08-05T19:36:25.756Z,30.21
2022-08-05T19:39:00.901Z,30.54
2022-08-05T19:41:58.293Z,30.55
2022-08-05T19:44:19.701Z,30.24
2022-08-05T19:46:47.233Z,30.18
2022-08-05T19:49:18.113Z,30.10
2022-08-05T19:52:05.861Z,30.13
2022-08-05T19:54:34.565Z,30.17
2022-08-05T19:57:08.418Z,30.07
2022-08-05T19:59:55.107Z,30.02
2022-08-05T20:02:26.009Z,29.94
2022-08-05T20:04:55.006Z,29.80
2022-08-05T20:07:46.854Z,29.59
2022-08-05T20:10:13.633Z,29.62
2022-08-05T20:12:47.634Z,29.58
2022-08-05T20:15:48.876Z,29.48
2022-08-05T20:18:10.267Z,29.51
2022-08-05T20:20:55.986Z,29.45
2022-08-05T20:23:39.269Z,29.35
2022-08-05T20:26:16.603Z,29.34
2022-08-05T20:28:46.240Z,29.21
2022-08-05T20:31:16.580Z,29.19
2022-08-05T20:33:44.984Z,29.17
2022-08-05T20:36:14.252Z,29.11
2022-08-05T20:38:54.265Z,29.14
2022-08-05T20:41:43.215Z,29.18
2022-08-05T20:44:28.920Z,29.22
2022-08-05T20:46:58.913Z,29.10
2022-08-05T20:49:26.643Z,29.24
2022-08-05T20:51:54.726Z,29.14
2022-08-05T20:54:25.986Z,29.03
2022-08-05T20:57:14.266Z,29.06
2022-08-05T21:00:10.219Z,29.04
2022-08-05T21:02:29.611Z,28.97
2022-08-05T21:04:57.177Z,29.07
2022-08-05T21:07:24.739Z,29.12
2022-08-05T21:10:13.753Z,29.01
2022-08-05T21:12:41.217Z,29.11
2022-08-05T21:15:26.120Z,29.21
2022-08-05T21:18:01.307Z,29.18
2022-08-05T21:20:33.036Z,29.18
2022-08-05T21:23:01.517Z,29.14
2022-08-05T21:25:33.949Z,29.07
2022-08-05T21:28:02.977Z,28.98
2022-08-05T21:30:31.570Z,28.93
2022-08-05T21:32:59.904Z,28.80
2022-08-05T21:35:55.343Z,28.70
2022-08-05T21:38:17.823Z,28.77
2022-08-05T21:40:45.266Z,28.67
2022-08-05T21:43:24.315Z,28.63
2022-08-05T21:45:57.803Z,28.56
2022-08-05T21:48:28.531Z,28.50
2022-08-05T21:50:57.255Z,28.50
2022-08-05T21:53:27.365Z,28.55
2022-08-05T21:56:06.030Z,28.46
2022-08-05T21:58:48.227Z,28.16
2022-08-05T22:01:26.187Z,27.94
2022-08-05T22:03:53.954Z,27.92
2022-08-05T22:06:23.095Z,27.91
2022-08-05T22:09:13.971Z,27.95
2022-08-05T22:11:43.308Z,27.92
2022-08-05T22:14:33.698Z,27.89
2022-08-05T22:17:05.097Z,27.88
2022-08-05T22:20:00.080Z,27.85
2022-08-05T22:22:27.769Z,27.91
2022-08-05T22:25:21.071Z,27.94
2022-08-05T22:28:08.359Z,27.94
2022-08-05T22:30:55.931Z,27.97
2022-08-05T22:33:55.622Z,27.95
2022-08-05T22:36:14.205Z,27.88
2022-08-05T22:38:48.712Z,27.84
2022-08-05T22:42:04.713Z,27.85
2022-08-05T22:44:08.145Z,27.65
2022-08-05T22:46:39.790Z,27.72
2022-08-05T22:49:12.432Z,27.82
2022-08-05T22:52:04.775Z,27.88
2022-08-05T22:54:36.351Z,27.91
2022-08-05T22:57:05.021Z,27.91
2022-08-05T22:59:45.161Z,27.81
2022-08-05T23:02:17.448Z,27.88
2022-08-05T23:04:51.941Z,27.88
2022-08-05T23:07:22.270Z,27.91
2022-08-05T23:09:57.666Z,27.91
2022-08-05T23:12:33.298Z,27.87
2022-08-05T23:15:09.132Z,27.87
2022-08-05T23:17:59.583Z,27.84
2022-08-05T23:20:24.566Z,27.87
2022-08-05T23:22:55.879Z,27.85
2022-08-05T23:25:53.155Z,27.88
2022-08-05T23:28:11.933Z,27.98
2022-08-05T23:30:43.913Z,27.95
2022-08-05T23:33:22.261Z,27.82
2022-08-05T23:35:55.803Z,27.78
2022-08-05T23:38:24.607Z,27.65
2022-08-05T23:40:52.576Z,27.53
2022-08-05T23:43:25.799Z,27.46
2022-08-05T23:46:20.146Z,27.57
2022-08-05T23:49:00.999Z,27.54
2022-08-05T23:51:53.567Z,27.55
2022-08-05T23:54:36.526Z,27.58
2022-08-05T23:57:06.602Z,27.67
